createdAt,value
2022-12-17T00:01:29.092Z,49.58
2022-12-17T00:03:30.985Z,49.55
2022-12-17T00:05:32.968Z,49.52
2022-12-17T00:07:36.182Z,49.49
2022-12-17T00:09:37.972Z,49.57
2022-12-17T00:11:39.908Z,49.97
2022-12-17T00:13:41.831Z,50.02
2022-12-17T00:15:43.801Z,49.86
2022-12-17T00:17:47.082Z,49.96
2022-12-17T00:19:48.995Z,49.92
2022-12-17T00:21:51.090Z,49.78
2022-12-17T00:23:53.786Z,49.66
2022-12-17T00:25:58.490Z,49.78
2022-12-17T00:28:00.289Z,49.49
2022-12-17T00:30:02.037Z,49.68
2022-12-17T00:32:06.923Z,49.41
2022-12-17T00:34:10.111Z,49.15
2022-12-17T00:36:11.887Z,49.72
2022-12-17T00:38:15.694Z,49.12
2022-12-17T00:40:17.567Z,48.84
2022-12-17T00:42:22.467Z,47.68
2022-12-17T00:44:24.517Z,48.12
2022-12-17T00:46:26.331Z,48.40
2022-12-17T00:48:28.052Z,48.04
2022-12-17T00:50:31.676Z,48.06
2022-12-17T00:52:33.456Z,47.77
2022-12-17T00:54:35.172Z,48.36
2022-12-17T00:56:36.957Z,48.02
2022-12-17T00:58:38.882Z,48.23
2022-12-17T01:00:40.644Z,48.49
2022-12-17T01:02:42.632Z,47.99
2022-12-17T01:04:44.592Z,48.54
2022-12-17T01:06:47.943Z,48.35
2022-12-17T01:08:49.769Z,48.02
2022-12-17T01:10:51.695Z,48.28
2022-12-17T01:12:55.317Z,48.69
2022-12-17T01:14:58.025Z,49.41
2022-12-17T01:16:59.822Z,49.72
2022-12-17T01:19:01.917Z,49.63
2022-12-17T01:21:03.896Z,49.42
2022-12-17T01:23:08.977Z,49.82
2022-12-17T01:25:10.729Z,50.13
2022-12-17T01:27:12.519Z,50.51
2022-12-17T01:29:17.154Z,50.39
2022-12-17T01:31:19.139Z,50.47
2022-12-17T01:33:21.333Z,50.98
2022-12-17T01:35:23.599Z,50.92
2022-12-17T01:37:25.329Z,50.56
2022-12-17T01:39:28.644Z,50.69
2022-12-17T01:41:30.591Z,50.55
2022-12-17T01:43:37.099Z,50.26
2022-12-17T01:45:43.559Z,50.04
2022-12-17T01:47:49.869Z,49.81
2022-12-17T01:49:51.880Z,49.96
2022-12-17T01:51:54.086Z,49.72
2022-12-17T01:53:56.423Z,50.07
2022-12-17T01:56:09.725Z,50.20
2022-12-17T01:58:11.564Z,49.73
2022-12-17T02:00:16.057Z,50.26
2022-12-17T02:02:17.902Z,50.22
2022-12-17T02:04:20.377Z,50.71
2022-12-17T02:06:26.639Z,50.19
2022-12-17T02:08:37.311Z,50.43
2022-12-17T02:10:46.230Z,50.27
2022-12-17T02:12:52.873Z,49.60
2022-12-17T02:15:01.304Z,49.76
2022-12-17T02:17:08.651Z,49.18
2022-12-17T02:19:26.431Z,48.83
2022-12-17T02:21:30.969Z,48.24
2022-12-17T02:23:44.626Z,48.24
2022-12-17T02:25:52.125Z,47.31
2022-12-17T02:27:55.648Z,47.26
2022-12-17T02:30:02.600Z,46.71
2022-12-17T02:32:07.402Z,47.00
2022-12-17T02:34:09.126Z,46.89
2022-12-17T02:36:10.999Z,47.31
2022-12-17T02:38:20.875Z,48.00
2022-12-17T02:40:24.905Z,48.10
2022-12-17T02:42:28.853Z,47.69
2022-12-17T02:44:35.021Z,47.32
2022-12-17T02:46:38.461Z,46.86
2022-12-17T02:48:40.802Z,47.22
2022-12-17T02:50:42.739Z,47.49
2022-12-17T02:52:47.925Z,47.37
2022-12-17T02:54:49.677Z,47.37
2022-12-17T02:56:51.588Z,47.14
2022-12-17T02:58:53.329Z,47.05
2022-12-17T03:00:56.903Z,47.40
2022-12-17T03:02:58.680Z,47.53
2022-12-17T03:05:21.054Z,47.86
2022-12-17T03:07:22.543Z,48.73
2022-12-17T03:09:24.469Z,48.60
2022-12-17T03:11:28.498Z,48.44
2022-12-17T03:13:30.660Z,48.38
2022-12-17T03:15:32.505Z,48.23
2022-12-17T03:17:35.856Z,48.24
2022-12-17T03:19:40.560Z,47.89
2022-12-17T03:21:42.898Z,48.01
2022-12-17T03:23:44.743Z,47.48
2022-12-17T03:25:48.951Z,47.68
2022-12-17T03:27:51.086Z,48.12
2022-12-17T03:29:52.817Z,47.93
2022-12-17T03:31:54.644Z,48.30
2022-12-17T03:33:57.807Z,47.75
2022-12-17T03:35:59.561Z,47.95
2022-12-17T03:38:01.339Z,48.40
2022-12-17T03:40:03.313Z,48.59
2022-12-17T03:42:05.170Z,48.45
2022-12-17T03:44:07.060Z,49.80
2022-12-17T03:46:08.881Z,49.84
2022-12-17T03:48:12.480Z,49.93
2022-12-17T03:50:15.643Z,49.13
2022-12-17T03:52:17.552Z,49.69
2022-12-17T03:54:19.337Z,49.84
2022-12-17T03:56:21.403Z,49.86
2022-12-17T03:58:23.403Z,50.26
2022-12-17T04:00:25.167Z,50.01
2022-12-17T04:02:27.234Z,50.39
2022-12-17T04:04:29.229Z,50.02
2022-12-17T04:06:32.438Z,49.33
2022-12-17T04:08:34.378Z,49.05
2022-12-17T04:10:36.142Z,49.17
2022-12-17T04:12:37.976Z,48.90
2022-12-17T04:14:39.903Z,48.76
2022-12-17T04:16:41.767Z,48.43
2022-12-17T04:18:43.633Z,47.71
2022-12-17T04:20:45.393Z,47.20
2022-12-17T04:22:48.639Z,47.17
2022-12-17T04:24:50.368Z,46.95
2022-12-17T04:26:52.116Z,46.80
2022-12-17T04:28:54.152Z,47.10
2022-12-17T04:30:55.908Z,46.44
2022-12-17T04:32:57.863Z,46.29
2022-12-17T04:34:59.596Z,46.89
2022-12-17T04:37:01.280Z,46.76
2022-12-17T04:39:04.580Z,46.02
2022-12-17T04:41:06.567Z,46.60
2022-12-17T04:43:10.304Z,46.26
2022-12-17T04:45:12.072Z,46.24
2022-12-17T04:47:13.855Z,45.90
2022-12-17T04:49:15.626Z,46.43
2022-12-17T04:51:17.381Z,46.68
2022-12-17T04:53:19.430Z,46.14
2022-12-17T04:55:22.704Z,46.04
2022-12-17T04:57:24.415Z,46.07
2022-12-17T04:59:26.072Z,46.39
2022-12-17T05:01:27.875Z,46.43
2022-12-17T05:03:29.897Z,45.98
2022-12-17T05:05:31.967Z,45.59
2022-12-17T05:07:36.611Z,46.37
2022-12-17T05:09:38.342Z,46.50
2022-12-17T05:11:41.711Z,46.26
2022-12-17T05:13:43.551Z,45.70
2022-12-17T05:15:51.353Z,46.20
2022-12-17T05:17:55.182Z,46.68
2022-12-17T05:19:59.428Z,47.10
2022-12-17T05:22:01.229Z,47.54
2022-12-17T05:24:03.154Z,47.66
2022-12-17T05:26:06.211Z,47.77
2022-12-17T05:28:11.990Z,47.40
2022-12-17T05:30:14.047Z,47.25
2022-12-17T05:32:15.749Z,46.95
2022-12-17T05:34:17.631Z,47.20
2022-12-17T05:36:20.916Z,47.45
2022-12-17T05:38:22.696Z,47.84
2022-12-17T05:40:24.475Z,47.74
2022-12-17T05:42:26.207Z,46.88
2022-12-17T05:44:29.345Z,47.20
2022-12-17T05:46:31.157Z,47.24
2022-12-17T05:48:33.883Z,47.37
2022-12-17T05:50:35.706Z,47.41
2022-12-17T05:52:37.389Z,46.91
2022-12-17T05:54:39.187Z,47.14
2022-12-17T05:56:40.870Z,46.48
2022-12-17T05:58:42.588Z,46.74
2022-12-17T06:00:45.735Z,46.81
2022-12-17T06:02:47.518Z,46.75
2022-12-17T06:04:49.692Z,46.41
2022-12-17T06:06:51.326Z,46.64
2022-12-17T06:08:54.291Z,46.67
2022-12-17T06:10:59.081Z,46.77
2022-12-17T06:13:00.808Z,46.66
2022-12-17T06:15:02.803Z,46.94
2022-12-17T06:17:06.232Z,46.87
2022-12-17T06:19:07.985Z,46.72
2022-12-17T06:21:09.691Z,46.47
2022-12-17T06:23:11.343Z,46.43
2022-12-17T06:25:13.070Z,46.45
2022-12-17T06:27:15.240Z,46.94
2022-12-17T06:29:17.005Z,47.18
2022-12-17T06:31:18.815Z,46.64
2022-12-17T06:33:22.876Z,46.81
2022-12-17T06:35:24.627Z,46.87
2022-12-17T06:37:26.809Z,47.02
2022-12-17T06:39:29.440Z,47.11
2022-12-17T06:41:31.095Z,47.39
2022-12-17T06:43:33.613Z,47.08
2022-12-17T06:45:35.744Z,47.54
2022-12-17T06:47:37.343Z,47.68
2022-12-17T06:49:41.074Z,47.91
2022-12-17T06:51:42.789Z,47.86
2022-12-17T06:53:44.522Z,47.41
2022-12-17T06:55:46.582Z,48.40
2022-12-17T06:57:50.454Z,48.23
2022-12-17T06:59:52.454Z,48.11
2022-12-17T07:01:55.001Z,47.89
2022-12-17T07:03:56.744Z,48.17
2022-12-17T07:06:01.570Z,48.13
2022-12-17T07:08:03.646Z,47.96
2022-12-17T07:10:13.628Z,48.15
2022-12-17T07:12:16.158Z,47.79
2022-12-17T07:14:18.209Z,48.00
2022-12-17T07:16:19.989Z,48.42
2022-12-17T07:18:22.061Z,48.51
2022-12-17T07:20:23.981Z,48.40
2022-12-17T07:22:27.501Z,48.73
2022-12-17T07:24:31.584Z,49.30
2022-12-17T07:26:33.574Z,49.80
2022-12-17T07:28:35.463Z,49.80
2022-12-17T07:30:37.212Z,49.96
2022-12-17T07:32:38.966Z,50.29
2022-12-17T07:34:40.671Z,50.09
2022-12-17T07:36:42.568Z,49.94
2022-12-17T07:38:46.117Z,49.95
2022-12-17T07:40:47.745Z,49.36
2022-12-17T07:42:49.753Z,49.30
2022-12-17T07:44:51.501Z,49.56
2022-12-17T07:46:55.527Z,50.18
2022-12-17T07:48:57.359Z,51.06
2022-12-17T07:51:01.699Z,53.14
2022-12-17T07:53:06.400Z,54.12
2022-12-17T07:55:15.392Z,54.85
2022-12-17T07:57:19.900Z,55.77
2022-12-17T07:59:21.904Z,56.16
2022-12-17T08:01:23.771Z,55.88
2022-12-17T08:03:27.580Z,56.34
2022-12-17T08:05:29.436Z,56.12
2022-12-17T08:07:31.277Z,56.63
2022-12-17T08:09:33.095Z,56.86
2022-12-17T08:11:38.901Z,56.94
2022-12-17T08:13:40.869Z,57.07
2022-12-17T08:15:58.883Z,56.96
2022-12-17T08:18:02.235Z,56.57
2022-12-17T08:20:05.557Z,56.31
2022-12-17T08:22:07.532Z,56.54
2022-12-17T08:24:09.473Z,56.66
2022-12-17T08:26:11.270Z,56.45
2022-12-17T08:28:41.291Z,55.90
2022-12-17T08:30:36.687Z,56.03
2022-12-17T08:32:38.938Z,55.53
2022-12-17T08:34:40.644Z,56.17
2022-12-17T08:36:42.468Z,55.77
2022-12-17T08:38:45.570Z,55.49
2022-12-17T08:40:47.435Z,55.60
2022-12-17T08:42:55.782Z,55.28
2022-12-17T08:44:59.281Z,55.27
2022-12-17T08:47:03.462Z,55.25
2022-12-17T08:49:05.397Z,54.89
2022-12-17T08:51:07.201Z,54.60
2022-12-17T08:53:09.031Z,54.23
2022-12-17T08:55:10.751Z,53.74
2022-12-17T08:57:12.550Z,54.07
2022-12-17T08:59:14.321Z,54.49
2022-12-17T09:01:18.049Z,53.98
2022-12-17T09:03:20.082Z,53.81
2022-12-17T09:05:21.983Z,54.13
2022-12-17T09:07:34.747Z,53.27
2022-12-17T09:09:36.404Z,53.63
2022-12-17T09:11:38.158Z,53.46
2022-12-17T09:13:40.073Z,53.77
2022-12-17T09:15:41.822Z,54.65
2022-12-17T09:17:45.097Z,54.24
2022-12-17T09:19:46.871Z,54.31
2022-12-17T09:21:48.584Z,54.41
2022-12-17T09:23:50.290Z,54.02
2022-12-17T09:25:58.212Z,54.04
2022-12-17T09:28:03.360Z,53.95
2022-12-17T09:30:06.271Z,53.36
2022-12-17T09:32:08.200Z,53.38
2022-12-17T09:34:11.853Z,53.76
2022-12-17T09:36:15.314Z,53.31
2022-12-17T09:38:17.100Z,53.87
2022-12-17T09:40:22.947Z,53.63
2022-12-17T09:42:30.388Z,53.09
2022-12-17T09:44:41.178Z,53.37
2022-12-17T09:46:51.048Z,53.34
2022-12-17T09:49:00.745Z,53.12
2022-12-17T09:51:04.661Z,52.94
2022-12-17T09:53:20.490Z,52.69
2022-12-17T09:55:27.274Z,52.36
2022-12-17T09:57:33.644Z,52.79
2022-12-17T09:59:43.677Z,52.69
2022-12-17T10:01:45.770Z,52.42
2022-12-17T10:03:49.469Z,52.29
2022-12-17T10:05:51.290Z,52.16
2022-12-17T10:07:55.143Z,52.45
2022-12-17T10:10:02.116Z,52.08
2022-12-17T10:12:13.481Z,52.57
2022-12-17T10:14:18.166Z,52.91
2022-12-17T10:16:27.489Z,52.77
2022-12-17T10:18:31.726Z,52.63
2022-12-17T10:20:38.459Z,52.51
2022-12-17T10:22:44.537Z,52.42
2022-12-17T10:24:49.931Z,52.64
2022-12-17T10:26:51.713Z,52.70
2022-12-17T10:29:02.783Z,53.06
2022-12-17T10:31:09.575Z,52.62
2022-12-17T10:33:18.405Z,52.55
2022-12-17T10:35:21.685Z,52.59
2022-12-17T10:37:27.707Z,52.95
2022-12-17T10:39:30.988Z,52.60
2022-12-17T10:41:37.491Z,53.13
2022-12-17T10:43:40.606Z,52.69
2022-12-17T10:45:54.839Z,52.72
2022-12-17T10:47:57.107Z,52.71
2022-12-17T10:50:00.609Z,52.23
2022-12-17T10:52:05.892Z,52.28
2022-12-17T10:54:19.938Z,52.94
2022-12-17T10:56:29.183Z,53.01
2022-12-17T10:58:33.238Z,52.79
2022-12-17T11:00:37.766Z,53.56
2022-12-17T11:02:39.808Z,53.51
2022-12-17T11:04:51.393Z,52.93
2022-12-17T11:06:56.148Z,53.52
2022-12-17T11:09:02.327Z,53.37
2022-12-17T11:11:12.688Z,53.37
2022-12-17T11:13:30.265Z,53.81
2022-12-17T11:15:38.269Z,53.41
2022-12-17T11:17:42.173Z,53.85
2022-12-17T11:19:49.275Z,53.49
2022-12-17T11:21:54.430Z,53.34
2022-12-17T11:23:59.499Z,53.17
2022-12-17T11:26:06.163Z,53.66
2022-12-17T11:28:17.789Z,53.76
2022-12-17T11:30:19.752Z,53.31
2022-12-17T11:32:55.305Z,53.62
2022-12-17T11:35:07.603Z,53.20
2022-12-17T11:37:17.684Z,52.77
2022-12-17T11:39:39.798Z,53.08
2022-12-17T11:41:54.685Z,52.64
2022-12-17T11:44:04.070Z,52.93
2022-12-17T11:46:18.074Z,52.36
2022-12-17T11:48:29.079Z,52.71
2022-12-17T11:50:41.008Z,52.46
2022-12-17T11:52:50.289Z,51.76
2022-12-17T11:54:59.311Z,52.59
2022-12-17T11:57:08.360Z,52.35
2022-12-17T11:59:23.426Z,51.99
2022-12-17T12:01:33.324Z,52.39
2022-12-17T12:03:48.756Z,52.61
2022-12-17T12:05:58.959Z,52.18
2022-12-17T12:08:10.839Z,52.58
2022-12-17T12:10:20.100Z,52.55
2022-12-17T12:12:34.720Z,53.19
2022-12-17T12:14:48.264Z,52.98
2022-12-17T12:16:56.112Z,53.80
2022-12-17T12:19:11.288Z,53.83
2022-12-17T12:21:25.573Z,53.09
2022-12-17T12:23:38.815Z,52.79
2022-12-17T12:25:52.586Z,52.90
2022-12-17T12:28:06.472Z,52.62
2022-12-17T12:30:15.492Z,53.08
2022-12-17T12:32:26.676Z,53.30
2022-12-17T12:34:33.781Z,52.25
2022-12-17T12:36:38.314Z,53.13
2022-12-17T12:38:46.652Z,52.94
2022-12-17T12:41:03.159Z,54.24
2022-12-17T12:43:21.492Z,54.04
2022-12-17T12:45:37.577Z,54.48
2022-12-17T12:47:48.138Z,55.33
2022-12-17T12:49:59.030Z,55.89
2022-12-17T12:52:01.235Z,55.77
2022-12-17T12:54:22.768Z,55.39
2022-12-17T12:56:56.033Z,54.75
2022-12-17T12:58:58.139Z,53.83
2022-12-17T13:01:02.262Z,54.00
2022-12-17T13:03:21.448Z,53.85
2022-12-17T13:05:32.645Z,53.84
2022-12-17T13:07:34.382Z,53.68
2022-12-17T13:09:48.407Z,53.23
2022-12-17T13:11:55.602Z,52.66
2022-12-17T13:14:06.457Z,52.70
2022-12-17T13:16:33.191Z,53.28
2022-12-17T13:18:37.887Z,53.33
2022-12-17T13:20:41.927Z,52.83
2022-12-17T13:22:50.484Z,52.89
2022-12-17T13:25:09.340Z,54.08
2022-12-17T13:27:27.900Z,55.50
2022-12-17T13:29:34.717Z,55.97
2022-12-17T13:31:48.405Z,54.75
2022-12-17T13:33:58.983Z,55.52
2022-12-17T13:36:13.432Z,55.35
2022-12-17T13:38:23.515Z,55.39
2022-12-17T13:40:37.497Z,56.04
2022-12-17T13:42:39.924Z,56.40
2022-12-17T13:44:46.468Z,55.88
2022-12-17T13:46:54.769Z,55.58
2022-12-17T13:48:58.725Z,54.64
2022-12-17T13:51:05.732Z,54.24
2022-12-17T13:53:11.521Z,54.41
2022-12-17T13:55:21.736Z,54.32
2022-12-17T13:57:26.198Z,54.76
2022-12-17T13:59:30.908Z,54.25
2022-12-17T14:01:33.154Z,54.05
2022-12-17T14:04:05.815Z,53.17
2022-12-17T14:05:59.903Z,52.99
2022-12-17T14:08:05.130Z,52.95
2022-12-17T14:10:15.160Z,53.01
2022-12-17T14:12:19.552Z,53.37
2022-12-17T14:14:31.973Z,53.98
2022-12-17T14:16:33.817Z,54.67
2022-12-17T14:18:40.013Z,54.78
2022-12-17T14:20:42.284Z,53.74
2022-12-17T14:22:51.282Z,54.12
2022-12-17T14:24:55.080Z,54.54
2022-12-17T14:26:59.199Z,55.22
2022-12-17T14:29:00.959Z,55.27
2022-12-17T14:33:31.171Z,54.82
2022-12-17T14:35:36.298Z,55.34
2022-12-17T14:37:38.020Z,55.29
2022-12-17T14:39:45.512Z,55.30
2022-12-17T14:41:49.418Z,56.36
2022-12-17T14:43:56.457Z,56.13
2022-12-17T14:46:01.427Z,56.38
2022-12-17T14:48:03.687Z,55.94
2022-12-17T14:50:07.971Z,56.02
2022-12-17T14:52:15.340Z,55.75
2022-12-17T14:54:21.635Z,55.44
2022-12-17T14:56:24.024Z,54.80
2022-12-17T14:58:27.991Z,54.49
2022-12-17T15:00:29.901Z,54.51
2022-12-17T15:02:32.217Z,54.86
2022-12-17T15:04:36.831Z,55.61
2022-12-17T15:06:38.537Z,56.42
2022-12-17T15:08:42.335Z,56.59
2022-12-17T15:10:44.278Z,56.35
2022-12-17T15:12:46.097Z,55.66
2022-12-17T15:14:49.520Z,55.95
2022-12-17T15:16:51.348Z,55.23
2022-12-17T15:18:53.192Z,55.00
2022-12-17T15:20:55.211Z,55.10
2022-12-17T15:22:56.958Z,55.35
2022-12-17T15:24:58.785Z,54.64
2022-12-17T15:27:00.574Z,54.51
2022-12-17T15:29:02.314Z,54.81
2022-12-17T15:31:09.544Z,54.85
2022-12-17T15:33:11.659Z,54.83
2022-12-17T15:35:14.440Z,54.50
2022-12-17T15:37:21.071Z,54.67
2022-12-17T15:39:25.830Z,54.45
2022-12-17T15:41:27.682Z,55.02
2022-12-17T15:43:34.513Z,54.81
2022-12-17T15:45:37.065Z,54.92
2022-12-17T15:47:40.560Z,55.21
2022-12-17T15:49:42.508Z,55.45
2022-12-17T15:51:44.497Z,55.38
2022-12-17T15:53:46.323Z,55.66
2022-12-17T15:55:48.177Z,55.72
2022-12-17T15:57:50.049Z,55.94
2022-12-17T15:59:52.178Z,55.22
2022-12-17T16:01:54.022Z,56.25
2022-12-17T16:03:58.108Z,56.07
2022-12-17T16:06:01.643Z,56.39
2022-12-17T16:08:03.439Z,56.63
2022-12-17T16:10:06.392Z,56.39
2022-12-17T16:12:08.199Z,56.27
2022-12-17T16:14:10.477Z,56.84
2022-12-17T16:16:12.282Z,56.61
2022-12-17T16:18:14.091Z,56.56
2022-12-17T16:20:17.391Z,56.37
2022-12-17T16:22:19.166Z,55.21
2022-12-17T16:24:21.029Z,55.90
2022-12-17T16:26:22.990Z,55.85
2022-12-17T16:28:25.019Z,55.91
2022-12-17T16:30:27.121Z,55.30
2022-12-17T16:32:34.565Z,56.12
2022-12-17T16:34:38.060Z,56.20
2022-12-17T16:36:42.083Z,56.23
2022-12-17T16:38:45.143Z,55.93
2022-12-17T16:40:47.207Z,56.50
2022-12-17T16:42:50.342Z,57.00
2022-12-17T16:44:52.043Z,56.52
2022-12-17T16:46:53.919Z,56.41
2022-12-17T16:48:57.881Z,55.45
2022-12-17T16:50:59.790Z,55.13
2022-12-17T16:53:03.697Z,54.94
2022-12-17T16:55:06.213Z,55.23
2022-12-17T16:57:08.273Z,56.39
2022-12-17T16:59:12.349Z,56.55
2022-12-17T17:01:18.557Z,55.82
2022-12-17T17:03:20.727Z,56.52
2022-12-17T17:05:22.769Z,56.53
2022-12-17T17:07:24.555Z,55.72
2022-12-17T17:09:29.687Z,55.36
2022-12-17T17:11:31.447Z,55.67
2022-12-17T17:13:33.679Z,55.83
2022-12-17T17:15:35.431Z,55.66
2022-12-17T17:17:53.778Z,56.19
2022-12-17T17:19:57.973Z,56.15
2022-12-17T17:22:00.088Z,56.64
2022-12-17T17:24:03.447Z,57.70
2022-12-17T17:26:07.700Z,57.71
2022-12-17T17:28:12.334Z,57.20
2022-12-17T17:30:14.578Z,56.24
2022-12-17T17:32:16.408Z,55.72
2022-12-17T17:34:18.300Z,55.41
2022-12-17T17:36:22.877Z,54.88
2022-12-17T17:38:24.747Z,54.69
2022-12-17T17:40:26.486Z,54.00
2022-12-17T17:42:29.860Z,53.88
2022-12-17T17:44:31.944Z,54.21
2022-12-17T17:46:35.278Z,54.41
2022-12-17T17:48:38.197Z,54.64
2022-12-17T17:50:40.575Z,55.16
2022-12-17T17:52:42.437Z,55.87
2022-12-17T17:54:44.251Z,55.36
2022-12-17T17:56:46.283Z,55.15
2022-12-17T17:58:52.165Z,54.91
2022-12-17T18:00:54.034Z,54.72
2022-12-17T18:02:56.264Z,54.25
2022-12-17T18:05:01.410Z,54.09
2022-12-17T18:09:25.444Z,54.33
2022-12-17T18:11:29.935Z,53.85
2022-12-17T18:13:33.531Z,53.70
2022-12-17T18:15:36.856Z,53.46
2022-12-17T18:17:38.913Z,53.52
2022-12-17T18:19:40.747Z,53.38
2022-12-17T18:21:44.600Z,53.43
2022-12-17T18:23:47.557Z,53.32
2022-12-17T18:25:49.353Z,53.64
2022-12-17T18:27:52.371Z,53.12
2022-12-17T18:29:54.428Z,53.40
2022-12-17T18:32:02.546Z,53.53
2022-12-17T18:34:05.452Z,53.41
2022-12-17T18:36:12.356Z,53.35
2022-12-17T18:38:14.002Z,53.54
2022-12-17T18:40:15.812Z,53.61
2022-12-17T18:42:17.573Z,53.55
2022-12-17T18:44:20.683Z,54.47
2022-12-17T18:46:23.567Z,55.19
2022-12-17T18:48:26.949Z,55.95
2022-12-17T18:50:28.819Z,56.87
2022-12-17T18:52:30.675Z,57.29
2022-12-17T18:54:32.799Z,57.59
2022-12-17T18:57:00.072Z,56.84
2022-12-17T18:58:57.924Z,56.04
2022-12-17T19:01:00.098Z,55.55
2022-12-17T19:03:02.319Z,55.58
2022-12-17T19:05:06.318Z,55.23
2022-12-17T19:07:08.089Z,55.52
2022-12-17T19:09:17.345Z,55.07
2022-12-17T19:11:20.663Z,55.50
2022-12-17T19:13:23.497Z,56.04
2022-12-17T19:15:28.309Z,56.06
2022-12-17T19:17:30.401Z,55.58
2022-12-17T19:19:35.123Z,55.06
2022-12-17T19:21:38.582Z,54.83
2022-12-17T19:23:40.819Z,55.01
2022-12-17T19:25:42.590Z,54.83
2022-12-17T19:27:44.455Z,55.00
2022-12-17T19:29:49.370Z,54.55
2022-12-17T19:31:52.111Z,54.50
2022-12-17T19:33:55.146Z,54.01
2022-12-17T19:36:01.836Z,54.04
2022-12-17T19:38:05.286Z,54.51
2022-12-17T19:40:08.371Z,54.44
2022-12-17T19:42:10.432Z,54.32
2022-12-17T19:44:14.119Z,53.88
2022-12-17T19:46:18.487Z,54.21
2022-12-17T19:48:20.355Z,54.54
2022-12-17T19:50:22.154Z,54.67
2022-12-17T19:52:26.563Z,54.83
2022-12-17T19:54:29.899Z,55.13
2022-12-17T19:56:33.295Z,55.22
2022-12-17T19:58:35.671Z,55.26
2022-12-17T20:00:37.641Z,55.08
2022-12-17T20:02:40.479Z,55.46
2022-12-17T20:04:42.281Z,54.94
2022-12-17T20:06:45.559Z,55.00
2022-12-17T20:08:48.593Z,55.13
2022-12-17T20:10:51.818Z,55.33
2022-12-17T20:12:53.679Z,55.76
2022-12-17T20:14:55.352Z,56.08
2022-12-17T20:16:59.088Z,55.83
2022-12-17T20:19:02.430Z,56.47
2022-12-17T20:21:06.258Z,56.50
2022-12-17T20:23:08.025Z,56.58
2022-12-17T20:25:10.129Z,56.87
2022-12-17T20:27:13.294Z,56.59
2022-12-17T20:29:18.013Z,56.38
2022-12-17T20:31:20.259Z,55.67
2022-12-17T20:33:22.148Z,55.74
2022-12-17T20:35:24.016Z,55.61
2022-12-17T20:37:25.822Z,55.80
2022-12-17T20:39:28.420Z,55.66
2022-12-17T20:41:31.255Z,56.13
2022-12-17T20:43:34.776Z,55.97
2022-12-17T20:45:37.078Z,55.65
2022-12-17T20:47:38.851Z,55.55
2022-12-17T20:49:40.693Z,55.59
2022-12-17T20:51:42.636Z,55.03
2022-12-17T20:53:44.929Z,54.99
2022-12-17T20:55:47.025Z,54.80
2022-12-17T20:57:48.744Z,54.72
2022-12-17T20:59:55.435Z,54.75
2022-12-17T21:01:57.327Z,55.79
2022-12-17T21:03:59.881Z,56.08
2022-12-17T21:06:10.168Z,55.68
2022-12-17T21:08:12.098Z,55.19
2022-12-17T21:10:13.905Z,55.33
2022-12-17T21:12:15.797Z,55.20
2022-12-17T21:14:19.342Z,55.12
2022-12-17T21:16:25.895Z,54.88
2022-12-17T21:18:29.483Z,55.03
2022-12-17T21:20:31.518Z,55.14
2022-12-17T21:22:33.634Z,55.03
2022-12-17T21:24:35.506Z,54.76
2022-12-17T21:26:39.290Z,54.28
2022-12-17T21:28:43.271Z,55.00
2022-12-17T21:30:45.711Z,54.61
2022-12-17T21:32:49.260Z,54.28
2022-12-17T21:34:51.409Z,54.05
2022-12-17T21:36:54.749Z,54.26
2022-12-17T21:38:57.868Z,54.00
2022-12-17T21:41:05.257Z,53.92
2022-12-17T21:43:07.505Z,53.61
2022-12-17T21:45:09.978Z,53.83
2022-12-17T21:47:11.987Z,54.50
2022-12-17T21:49:15.595Z,54.53
2022-12-17T21:51:18.086Z,54.39
2022-12-17T21:53:20.848Z,54.58
2022-12-17T21:55:22.802Z,54.12
2022-12-17T21:57:25.273Z,54.17
2022-12-17T21:59:27.297Z,54.41
2022-12-17T22:01:33.518Z,54.31
2022-12-17T22:03:35.476Z,54.12
2022-12-17T22:05:41.696Z,54.01
2022-12-17T22:07:46.419Z,53.76
2022-12-17T22:10:10.695Z,53.80
2022-12-17T22:12:11.606Z,53.71
2022-12-17T22:14:20.683Z,54.38
2022-12-17T22:16:23.332Z,54.03
2022-12-17T22:18:25.177Z,54.22
2022-12-17T22:20:27.134Z,54.07
2022-12-17T22:22:30.653Z,54.16
2022-12-17T22:24:36.252Z,54.27
2022-12-17T22:26:38.792Z,54.05
2022-12-17T22:28:40.977Z,54.32
2022-12-17T22:30:43.028Z,54.93
2022-12-17T22:32:45.421Z,55.21
2022-12-17T22:35:24.299Z,55.76
2022-12-17T22:40:25.809Z,56.76
2022-12-17T22:43:58.299Z,56.22
2022-12-17T22:44:45.731Z,55.65
2022-12-17T22:44:46.138Z,56.01
2022-12-17T22:46:39.493Z,55.23
2022-12-17T22:48:41.353Z,54.83
2022-12-17T22:50:47.146Z,55.14
2022-12-17T22:53:05.695Z,54.86
2022-12-17T22:55:14.788Z,54.79
2022-12-17T22:57:36.775Z,54.85
2022-12-17T22:59:38.995Z,54.35
2022-12-17T23:01:41.994Z,54.05
2022-12-17T23:03:44.691Z,54.33
2022-12-17T23:05:46.750Z,54.28
2022-12-17T23:07:51.136Z,54.19
2022-12-17T23:09:52.952Z,54.23
2022-12-17T23:11:59.292Z,54.17
2022-12-17T23:14:07.687Z,53.84
2022-12-17T23:16:11.317Z,54.77
2022-12-17T23:18:13.166Z,54.62
2022-12-17T23:20:16.087Z,54.54
2022-12-17T23:22:22.232Z,54.53
2022-12-17T23:24:24.353Z,56.31
2022-12-17T23:26:28.357Z,56.35
2022-12-17T23:28:32.070Z,56.41
2022-12-17T23:30:35.958Z,56.13
2022-12-17T23:32:38.195Z,55.40
2022-12-17T23:34:40.195Z,55.79
2022-12-17T23:36:42.385Z,55.32
2022-12-17T23:38:44.914Z,55.01
2022-12-17T23:40:46.723Z,54.88
2022-12-17T23:42:48.565Z,56.65
2022-12-17T23:44:52.100Z,56.72
2022-12-17T23:46:53.848Z,56.82
2022-12-17T23:48:56.327Z,56.42
2022-12-17T23:50:59.018Z,56.13
2022-12-17T23:53:00.984Z,57.00
2022-12-17T23:55:04.275Z,56.90
2022-12-17T23:57:06.303Z,57.21
2022-12-17T23:59:09.508Z,57.07
